createdAt,value
2022-08-08T00:02:02.982Z,14.30
2022-08-08T00:04:34.877Z,14.30
2022-08-08T00:07:21.149Z,14.40
2022-08-08T00:10:06.365Z,14.40
2022-08-08T00:12:39.567Z,14.40
2022-08-08T00:15:24.301Z,14.40
2022-08-08T00:18:08.635Z,14.30
2022-08-08T00:20:44.340Z,14.20
2022-08-08T00:23:16.313Z,14.10
2022-08-08T00:25:51.247Z,14.10
2022-08-08T00:28:35.035Z,14.10
2022-08-08T00:32:20.108Z,14.10
2022-08-08T00:34:34.902Z,14.00
2022-08-08T00:37:08.148Z,14.00
2022-08-08T00:41:12.382Z,14.00
2022-08-08T00:42:50.285Z,14.00
2022-08-08T00:45:29.462Z,13.60
2022-08-08T00:48:30.203Z,13.70
2022-08-08T00:51:15.174Z,13.70
2022-08-08T00:54:04.562Z,13.70
2022-08-08T00:56:50.408Z,13.70
2022-08-08T00:59:44.709Z,13.70
2022-08-08T01:03:57.612Z,13.70
2022-08-08T01:05:29.243Z,13.70
2022-08-08T01:08:30.401Z,13.80
2022-08-08T01:11:00.932Z,13.80
2022-08-08T01:13:43.768Z,13.80
2022-08-08T01:16:32.198Z,13.70
2022-08-08T01:19:42.055Z,13.70
2022-08-08T01:22:23.217Z,13.60
2022-08-08T01:25:14.196Z,13.70
2022-08-08T01:28:04.220Z,13.60
2022-08-08T01:30:53.719Z,13.50
2022-08-08T01:33:43.031Z,13.40
2022-08-08T01:36:40.445Z,13.50
2022-08-08T01:39:35.044Z,13.40
2022-08-08T01:42:14.901Z,13.50
2022-08-08T01:44:42.958Z,13.50
2022-08-08T01:48:14.848Z,13.50
2022-08-08T01:50:29.840Z,13.50
2022-08-08T01:54:20.395Z,13.50
2022-08-08T01:56:27.602Z,13.40
2022-08-08T01:59:07.953Z,13.50
2022-08-08T02:01:59.911Z,13.40
2022-08-08T02:04:39.741Z,13.40
2022-08-08T02:07:16.486Z,13.30
2022-08-08T02:10:01.837Z,13.10
2022-08-08T02:12:34.754Z,13.10
2022-08-08T02:15:12.527Z,13.10
2022-08-08T02:17:58.781Z,13.20
2022-08-08T02:21:01.738Z,13.20
2022-08-08T02:23:40.518Z,13.10
2022-08-08T02:26:16.948Z,13.10
2022-08-08T02:28:56.403Z,13.00
2022-08-08T02:31:59.018Z,12.90
2022-08-08T02:34:09.931Z,12.80
2022-08-08T02:37:10.036Z,12.80
2022-08-08T02:40:08.686Z,12.80
2022-08-08T02:42:46.854Z,12.80
2022-08-08T02:45:33.479Z,12.90
2022-08-08T02:48:31.847Z,12.90
2022-08-08T02:50:58.574Z,12.90
2022-08-08T02:53:42.421Z,12.80
2022-08-08T02:56:28.381Z,12.70
2022-08-08T02:59:25.866Z,12.70
2022-08-08T03:02:21.178Z,12.70
2022-08-08T03:05:05.253Z,12.60
2022-08-08T03:07:58.119Z,12.60
2022-08-08T03:10:36.271Z,12.60
2022-08-08T03:13:34.013Z,12.60
2022-08-08T03:16:34.270Z,12.70
2022-08-08T03:19:21.880Z,12.60
2022-08-08T03:21:58.421Z,12.50
2022-08-08T03:24:28.917Z,12.20
2022-08-08T03:27:02.818Z,12.10
2022-08-08T03:29:51.401Z,12.10
2022-08-08T03:32:41.246Z,12.10
2022-08-08T03:35:09.761Z,12.20
2022-08-08T03:38:54.429Z,12.20
2022-08-08T03:40:29.987Z,12.20
2022-08-08T03:43:16.802Z,12.10
2022-08-08T03:46:03.103Z,12.10
2022-08-08T03:49:09.739Z,12.00
2022-08-08T03:51:26.560Z,12.00
2022-08-08T03:54:09.332Z,11.90
2022-08-08T03:56:36.266Z,11.80
2022-08-08T03:59:03.887Z,11.90
2022-08-08T04:02:13.108Z,11.80
2022-08-08T04:04:23.109Z,11.70
2022-08-08T04:07:01.334Z,11.80
2022-08-08T04:10:00.431Z,11.80
2022-08-08T04:12:21.685Z,11.80
2022-08-08T04:14:50.692Z,11.90
2022-08-08T04:17:45.613Z,11.90
2022-08-08T04:20:06.052Z,11.70
2022-08-08T04:22:36.186Z,11.60
2022-08-08T04:25:05.125Z,11.60
2022-08-08T04:28:02.478Z,11.60
2022-08-08T04:30:20.005Z,11.70
2022-08-08T04:33:41.811Z,11.60
2022-08-08T04:36:09.878Z,11.50
2022-08-08T04:38:37.549Z,11.50
2022-08-08T04:41:09.448Z,11.60
2022-08-08T04:43:45.243Z,11.60
2022-08-08T04:46:18.932Z,11.70
2022-08-08T04:48:48.089Z,11.80
2022-08-08T04:51:17.508Z,11.90
2022-08-08T04:54:40.345Z,11.90
2022-08-08T04:56:41.664Z,11.90
2022-08-08T04:59:10.205Z,11.90
2022-08-08T05:01:48.128Z,11.90
2022-08-08T05:04:17.028Z,11.90
2022-08-08T05:06:45.408Z,11.90
2022-08-08T05:09:12.560Z,11.90
2022-08-08T05:11:47.626Z,12.00
2022-08-08T05:14:24.430Z,12.00
2022-08-08T05:17:00.659Z,12.10
2022-08-08T05:20:12.226Z,12.20
2022-08-08T05:22:20.625Z,12.40
2022-08-08T05:24:50.078Z,12.60
2022-08-08T05:27:21.510Z,12.70
2022-08-08T05:29:51.841Z,12.80
2022-08-08T05:32:26.918Z,12.90
2022-08-08T05:35:01.719Z,13.10
2022-08-08T05:37:49.203Z,13.20
2022-08-08T05:40:28.117Z,13.30
2022-08-08T05:43:03.229Z,13.40
2022-08-08T05:45:53.250Z,13.60
2022-08-08T05:48:28.803Z,13.80
2022-08-08T05:51:14.731Z,13.90
2022-08-08T05:54:24.051Z,14.10
2022-08-08T05:56:33.492Z,14.20
2022-08-08T05:59:04.160Z,14.30
2022-08-08T06:01:52.778Z,14.40
2022-08-08T06:04:25.751Z,14.50
2022-08-08T06:07:01.629Z,14.50
2022-08-08T06:09:59.176Z,14.60
2022-08-08T06:12:30.237Z,14.70
2022-08-08T06:15:03.706Z,14.90
2022-08-08T06:17:50.783Z,15.00
2022-08-08T06:20:22.956Z,15.10
2022-08-08T06:22:52.654Z,15.30
2022-08-08T06:25:58.844Z,15.40
2022-08-08T06:28:12.951Z,15.50
2022-08-08T06:30:42.049Z,15.70
2022-08-08T06:33:11.717Z,15.80
2022-08-08T06:36:06.772Z,15.90
2022-08-08T06:38:34.784Z,15.90
2022-08-08T06:41:04.758Z,16.00
2022-08-08T06:43:34.753Z,16.10
2022-08-08T06:46:09.121Z,16.20
2022-08-08T06:48:42.501Z,16.30
2022-08-08T06:51:10.991Z,16.40
2022-08-08T06:53:39.691Z,16.50
2022-08-08T06:56:11.459Z,16.50
2022-08-08T06:58:43.614Z,16.60
2022-08-08T07:02:17.191Z,16.70
2022-08-08T07:04:39.645Z,16.70
2022-08-08T07:06:57.244Z,16.80
2022-08-08T07:09:45.393Z,16.80
2022-08-08T07:12:34.240Z,16.80
2022-08-08T07:15:15.486Z,16.90
2022-08-08T07:18:02.121Z,17.00
2022-08-08T07:20:45.920Z,17.10
2022-08-08T07:23:57.412Z,17.10
2022-08-08T07:26:21.666Z,17.30
2022-08-08T07:29:05.428Z,17.40
2022-08-08T07:31:35.495Z,17.50
2022-08-08T07:34:08.752Z,17.50
2022-08-08T07:36:37.540Z,17.50
2022-08-08T07:39:17.823Z,17.60
2022-08-08T07:42:04.197Z,17.60
2022-08-08T07:44:40.490Z,17.70
2022-08-08T07:47:09.053Z,17.80
2022-08-08T07:49:39.938Z,17.80
2022-08-08T07:52:13.475Z,17.90
2022-08-08T07:55:13.877Z,17.90
2022-08-08T07:58:02.749Z,18.00
2022-08-08T08:00:49.539Z,18.10
2022-08-08T08:03:30.981Z,18.20
2022-08-08T08:06:11.266Z,18.30
2022-08-08T08:08:53.032Z,18.30
2022-08-08T08:11:23.509Z,18.30
2022-08-08T08:14:08.135Z,18.40
2022-08-08T08:16:41.869Z,18.50
2022-08-08T08:19:17.840Z,18.50
2022-08-08T08:21:58.354Z,18.60
2022-08-08T08:24:46.521Z,18.60
2022-08-08T08:27:14.414Z,18.70
2022-08-08T08:29:51.009Z,18.80
2022-08-08T08:32:24.165Z,18.90
2022-08-08T08:35:04.652Z,18.90
2022-08-08T08:37:32.501Z,18.90
2022-08-08T08:40:02.901Z,18.90
2022-08-08T08:42:36.790Z,19.00
2022-08-08T08:45:20.897Z,19.00
2022-08-08T08:47:53.172Z,19.10
2022-08-08T08:50:33.718Z,19.20
2022-08-08T08:53:55.252Z,19.30
2022-08-08T08:56:03.717Z,19.30
2022-08-08T08:58:38.031Z,19.40
2022-08-08T09:01:08.925Z,19.50
2022-08-08T09:03:47.132Z,19.60
2022-08-08T09:06:28.734Z,19.60
2022-08-08T09:09:04.817Z,19.70
2022-08-08T09:11:47.035Z,19.80
2022-08-08T09:14:15.197Z,19.80
2022-08-08T09:16:43.973Z,19.90
2022-08-08T09:19:14.536Z,19.90
2022-08-08T09:22:02.632Z,19.90
2022-08-08T09:24:32.945Z,20.00
2022-08-08T09:27:02.693Z,20.10
2022-08-08T09:29:32.218Z,20.10
2022-08-08T09:32:05.821Z,20.20
2022-08-08T09:34:45.661Z,20.20
2022-08-08T09:37:34.118Z,20.20
2022-08-08T09:40:10.988Z,20.20
2022-08-08T09:42:44.312Z,20.30
2022-08-08T09:45:55.450Z,20.30
2022-08-08T09:48:16.314Z,20.30
2022-08-08T09:50:50.639Z,20.30
2022-08-08T09:53:31.804Z,20.50
2022-08-08T09:56:11.522Z,20.50
2022-08-08T09:58:45.023Z,20.70
2022-08-08T10:01:15.153Z,20.70
2022-08-08T10:04:02.282Z,20.70
2022-08-08T10:06:32.631Z,20.80
2022-08-08T10:09:02.586Z,20.80
2022-08-08T10:12:25.993Z,21.00
2022-08-08T10:14:34.958Z,21.10
2022-08-08T10:17:06.323Z,21.10
2022-08-08T10:19:58.264Z,21.20
2022-08-08T10:22:26.263Z,21.30
2022-08-08T10:24:55.585Z,21.20
2022-08-08T10:27:28.334Z,21.30
2022-08-08T10:30:03.838Z,21.20
2022-08-08T10:32:32.916Z,21.20
2022-08-08T10:35:11.786Z,21.20
2022-08-08T10:38:13.709Z,21.30
2022-08-08T10:40:42.566Z,21.30
2022-08-08T10:43:10.285Z,21.30
2022-08-08T10:45:55.624Z,21.40
2022-08-08T10:48:31.272Z,21.50
2022-08-08T10:51:10.792Z,21.60
2022-08-08T10:53:56.438Z,21.60
2022-08-08T10:56:26.879Z,21.60
2022-08-08T10:58:58.217Z,21.60
2022-08-08T11:01:28.047Z,21.70
2022-08-08T11:04:01.963Z,21.80
2022-08-08T11:06:34.261Z,21.80
2022-08-08T11:09:15.620Z,21.90
2022-08-08T11:12:06.063Z,21.90
2022-08-08T11:14:34.989Z,21.90
2022-08-08T11:17:02.720Z,21.80
2022-08-08T11:19:33.029Z,21.90
2022-08-08T11:22:00.884Z,22.00
2022-08-08T11:24:33.445Z,22.00
2022-08-08T11:27:10.561Z,21.90
2022-08-08T11:30:18.719Z,22.00
2022-08-08T11:32:37.529Z,22.00
2022-08-08T11:35:27.609Z,22.10
2022-08-08T11:38:37.126Z,22.20
2022-08-08T11:40:51.228Z,22.30
2022-08-08T11:43:19.479Z,22.40
2022-08-08T11:46:09.574Z,22.50
2022-08-08T11:48:37.446Z,22.50
2022-08-08T11:51:30.658Z,22.50
2022-08-08T11:53:55.289Z,22.50
2022-08-08T11:56:31.616Z,22.50
2022-08-08T11:59:08.248Z,22.60
2022-08-08T12:01:37.046Z,22.70
2022-08-08T12:04:05.226Z,22.60
2022-08-08T12:06:32.660Z,22.60
2022-08-08T12:09:08.719Z,22.60
2022-08-08T12:11:42.171Z,22.70
2022-08-08T12:14:11.038Z,22.80
2022-08-08T12:16:48.842Z,22.70
2022-08-08T12:19:15.930Z,22.80
2022-08-08T12:22:00.527Z,22.90
2022-08-08T12:24:29.796Z,22.90
2022-08-08T12:26:56.960Z,23.00
2022-08-08T12:29:41.049Z,23.00
2022-08-08T12:32:13.403Z,23.10
2022-08-08T12:34:45.649Z,23.20
2022-08-08T12:37:19.686Z,23.20
2022-08-08T12:40:00.651Z,23.20
2022-08-08T12:42:33.492Z,23.30
2022-08-08T12:45:02.213Z,23.40
2022-08-08T12:47:57.794Z,23.40
2022-08-08T12:50:15.520Z,23.50
2022-08-08T12:52:52.429Z,23.70
2022-08-08T12:55:29.286Z,23.70
2022-08-08T12:58:09.512Z,23.80
2022-08-08T13:00:42.571Z,23.90
2022-08-08T13:03:10.753Z,24.00
2022-08-08T13:06:04.080Z,24.00
2022-08-08T13:08:38.300Z,24.10
2022-08-08T13:11:05.471Z,24.30
2022-08-08T13:13:37.212Z,24.40
2022-08-08T13:16:21.276Z,24.40
2022-08-08T13:18:58.461Z,24.50
2022-08-08T13:21:53.048Z,24.70
2022-08-08T13:24:18.668Z,24.80
2022-08-08T13:27:03.261Z,24.90
2022-08-08T13:29:40.844Z,24.90
2022-08-08T13:32:07.842Z,25.00
2022-08-08T13:34:38.133Z,25.00
2022-08-08T13:37:11.085Z,25.10
2022-08-08T13:39:55.405Z,25.30
2022-08-08T13:42:22.873Z,25.40
2022-08-08T13:44:55.680Z,25.40
2022-08-08T13:47:23.141Z,25.50
2022-08-08T13:50:36.958Z,25.60
2022-08-08T13:52:54.907Z,25.50
2022-08-08T13:55:29.479Z,25.50
2022-08-08T13:58:07.991Z,25.30
2022-08-08T14:00:45.295Z,25.60
2022-08-08T14:03:52.330Z,25.70
2022-08-08T14:06:32.175Z,25.70
2022-08-08T14:08:57.085Z,26.00
2022-08-08T14:11:24.903Z,26.00
2022-08-08T14:13:59.587Z,26.10
2022-08-08T14:16:27.787Z,26.30
2022-08-08T14:18:55.561Z,26.40
2022-08-08T14:21:31.198Z,26.40
2022-08-08T14:24:08.514Z,26.10
2022-08-08T14:26:38.188Z,26.10
2022-08-08T14:29:06.007Z,26.20
2022-08-08T14:32:10.859Z,26.50
2022-08-08T14:34:33.529Z,26.60
2022-08-08T14:37:06.300Z,26.80
2022-08-08T14:39:53.504Z,26.70
2022-08-08T14:42:31.500Z,26.80
2022-08-08T14:45:00.347Z,26.70
2022-08-08T14:47:27.480Z,26.90
2022-08-08T14:50:14.182Z,26.90
2022-08-08T14:52:52.722Z,26.90
2022-08-08T14:55:22.222Z,27.00
2022-08-08T14:58:05.845Z,26.90
2022-08-08T15:00:37.882Z,26.90
2022-08-08T15:03:16.120Z,27.00
2022-08-08T15:05:52.375Z,27.00
2022-08-08T15:08:34.252Z,26.90
2022-08-08T15:11:04.349Z,26.90
2022-08-08T15:13:35.228Z,27.00
2022-08-08T15:16:11.947Z,27.00
2022-08-08T15:18:49.875Z,26.70
2022-08-08T15:21:18.084Z,26.80
2022-08-08T15:23:44.715Z,26.80
2022-08-08T15:26:18.852Z,26.90
2022-08-08T15:28:45.486Z,27.30
2022-08-08T15:31:25.618Z,27.40
2022-08-08T15:34:04.452Z,27.60
2022-08-08T15:36:31.322Z,27.50
2022-08-08T15:38:57.980Z,27.60
2022-08-08T15:41:36.980Z,27.70
2022-08-08T15:44:04.075Z,27.70
2022-08-08T15:46:34.755Z,28.00
2022-08-08T15:49:02.404Z,28.10
2022-08-08T15:51:32.808Z,27.90
2022-08-08T15:54:00.879Z,28.20
2022-08-08T15:56:27.542Z,28.60
2022-08-08T15:58:54.161Z,28.70
2022-08-08T16:01:22.453Z,29.30
2022-08-08T16:03:51.976Z,29.80
2022-08-08T16:06:28.635Z,30.20
2022-08-08T16:09:02.475Z,30.80
2022-08-08T16:13:15.025Z,31.50
2022-08-08T16:14:33.764Z,31.80
2022-08-08T16:17:00.944Z,32.10
2022-08-08T16:19:30.058Z,32.30
2022-08-08T16:21:57.587Z,32.40
2022-08-08T16:24:24.261Z,32.30
2022-08-08T16:26:50.981Z,31.80
2022-08-08T16:29:37.154Z,31.50
2022-08-08T16:32:11.183Z,31.70
2022-08-08T16:34:46.577Z,31.70
2022-08-08T16:37:13.261Z,31.90
2022-08-08T16:40:01.340Z,32.20
2022-08-08T16:42:30.046Z,32.10
2022-08-08T16:44:58.916Z,32.50
2022-08-08T16:47:40.053Z,32.60
2022-08-08T16:50:14.199Z,32.50
2022-08-08T16:55:03.617Z,32.40
2022-08-08T16:55:52.593Z,32.50
2022-08-08T16:58:20.616Z,32.10
2022-08-08T17:00:48.991Z,32.00
2022-08-08T17:03:25.335Z,32.00
2022-08-08T17:06:05.357Z,31.90
2022-08-08T17:08:32.183Z,32.20
2022-08-08T17:11:10.536Z,32.30
2022-08-08T17:13:41.248Z,32.50
2022-08-08T17:16:25.107Z,32.30
2022-08-08T17:18:55.324Z,32.50
2022-08-08T17:21:22.381Z,32.00
2022-08-08T17:23:58.027Z,31.80
2022-08-08T17:26:29.641Z,31.90
2022-08-08T17:29:04.422Z,32.10
2022-08-08T17:31:46.390Z,32.30
2022-08-08T17:34:48.604Z,32.30
2022-08-08T17:37:03.424Z,32.10
2022-08-08T17:40:03.915Z,32.10
2022-08-08T17:42:19.067Z,32.00
2022-08-08T17:44:46.392Z,32.00
2022-08-08T17:47:23.107Z,31.80
2022-08-08T17:50:03.254Z,31.70
2022-08-08T17:52:30.907Z,31.60
2022-08-08T17:54:57.939Z,31.20
2022-08-08T17:57:25.776Z,31.20
2022-08-08T17:59:59.019Z,31.20
2022-08-08T18:02:30.943Z,31.00
2022-08-08T18:04:58.562Z,30.70
2022-08-08T18:08:02.455Z,30.20
2022-08-08T18:10:15.195Z,29.80
2022-08-08T18:12:44.385Z,29.50
2022-08-08T18:15:13.241Z,29.20
2022-08-08T18:18:09.724Z,28.90
2022-08-08T18:20:36.499Z,28.30
2022-08-08T18:23:12.507Z,27.90
2022-08-08T18:25:42.749Z,27.50
2022-08-08T18:28:13.432Z,27.10
2022-08-08T18:30:42.597Z,26.50
2022-08-08T18:33:36.278Z,25.90
2022-08-08T18:36:02.889Z,25.30
2022-08-08T18:38:32.374Z,24.80
2022-08-08T18:41:03.033Z,24.40
2022-08-08T18:43:43.200Z,24.10
2022-08-08T18:46:54.232Z,23.80
2022-08-08T18:48:57.532Z,23.30
2022-08-08T18:51:53.549Z,23.00
2022-08-08T18:54:22.587Z,22.90
2022-08-08T18:56:57.088Z,22.70
2022-08-08T18:59:24.130Z,22.50
2022-08-08T19:02:26.219Z,22.30
2022-08-08T19:04:37.983Z,22.30
2022-08-08T19:07:05.296Z,22.10
2022-08-08T19:09:49.071Z,21.90
2022-08-08T19:12:19.861Z,21.80
2022-08-08T19:14:54.239Z,21.70
2022-08-08T19:17:29.382Z,21.70
2022-08-08T19:20:07.984Z,21.60
2022-08-08T19:22:37.554Z,21.60
2022-08-08T19:26:01.610Z,21.50
2022-08-08T19:27:57.255Z,21.40
2022-08-08T19:30:27.292Z,21.40
2022-08-08T19:32:58.065Z,21.30
2022-08-08T19:35:44.308Z,21.20
2022-08-08T19:38:21.931Z,21.20
2022-08-08T19:40:55.623Z,21.10
2022-08-08T19:43:28.494Z,21.10
2022-08-08T19:46:00.433Z,21.00
2022-08-08T19:48:30.814Z,21.00
2022-08-08T19:50:59.183Z,21.00
2022-08-08T19:53:53.553Z,20.90
2022-08-08T19:56:13.757Z,20.80
2022-08-08T19:58:51.498Z,20.70
2022-08-08T20:01:22.760Z,20.70
2022-08-08T20:04:02.019Z,20.70
2022-08-08T20:06:30.609Z,20.70
2022-08-08T20:08:58.828Z,20.60
2022-08-08T20:11:31.467Z,20.60
2022-08-08T20:14:31.727Z,20.50
2022-08-08T20:16:46.110Z,20.40
2022-08-08T20:19:13.062Z,20.30
2022-08-08T20:21:41.734Z,20.30
2022-08-08T20:24:08.881Z,20.30
2022-08-08T20:26:38.342Z,20.20
2022-08-08T20:29:08.631Z,20.10
2022-08-08T20:31:46.994Z,20.10
2022-08-08T20:34:29.437Z,20.00
2022-08-08T20:36:59.301Z,19.90
2022-08-08T20:39:33.671Z,19.90
2022-08-08T20:42:07.033Z,19.80
2022-08-08T20:44:35.964Z,19.70
2022-08-08T20:47:04.458Z,19.50
2022-08-08T20:49:39.764Z,19.40
2022-08-08T20:52:07.210Z,19.40
2022-08-08T20:54:33.866Z,19.10
2022-08-08T20:57:16.462Z,18.80
2022-08-08T20:59:44.378Z,18.60
2022-08-08T21:02:19.747Z,18.40
2022-08-08T21:04:53.041Z,18.30
2022-08-08T21:07:47.311Z,18.30
2022-08-08T21:10:12.462Z,18.30
2022-08-08T21:12:41.464Z,18.20
2022-08-08T21:15:11.679Z,18.10
2022-08-08T21:17:43.432Z,18.00
2022-08-08T21:20:11.882Z,17.90
2022-08-08T21:22:38.706Z,17.80
2022-08-08T21:25:06.315Z,17.80
2022-08-08T21:28:09.800Z,17.70
2022-08-08T21:30:26.821Z,17.70
2022-08-08T21:32:56.931Z,17.60
2022-08-08T21:36:16.839Z,17.60
2022-08-08T21:38:16.687Z,17.40
2022-08-08T21:40:54.850Z,17.20
2022-08-08T21:43:21.972Z,17.10
2022-08-08T21:48:04.711Z,17.00
2022-08-08T21:48:41.518Z,16.90
2022-08-08T21:51:11.767Z,16.80
2022-08-08T21:54:34.461Z,16.80
2022-08-08T21:56:31.307Z,16.70
2022-08-08T21:59:04.007Z,16.70
2022-08-08T22:01:39.161Z,16.60
2022-08-08T22:04:10.490Z,16.50
2022-08-08T22:06:40.320Z,16.50
2022-08-08T22:09:08.208Z,16.40
2022-08-08T22:11:51.273Z,16.30
2022-08-08T22:14:22.271Z,16.30
2022-08-08T22:16:50.998Z,16.30
2022-08-08T22:19:23.543Z,16.20
2022-08-08T22:21:51.675Z,16.10
2022-08-08T22:24:23.981Z,16.10
2022-08-08T22:27:02.694Z,16.10
2022-08-08T22:30:00.990Z,16.10
2022-08-08T22:32:18.101Z,16.00
2022-08-08T22:34:51.091Z,16.00
2022-08-08T22:37:27.604Z,15.90
2022-08-08T22:40:06.127Z,15.90
2022-08-08T22:42:34.622Z,15.80
2022-08-08T22:45:02.497Z,15.70
2022-08-08T22:47:37.882Z,15.70
2022-08-08T22:50:21.630Z,15.70
2022-08-08T22:54:15.831Z,15.60
2022-08-08T22:55:58.220Z,15.60
2022-08-08T22:58:32.867Z,15.60
2022-08-08T23:01:00.947Z,15.50
2022-08-08T23:03:34.445Z,15.50
2022-08-08T23:06:15.824Z,15.40
2022-08-08T23:08:54.322Z,15.50
2022-08-08T23:11:22.974Z,15.50
2022-08-08T23:14:01.251Z,15.40
2022-08-08T23:16:41.876Z,15.40
2022-08-08T23:19:10.914Z,15.20
2022-08-08T23:21:38.025Z,15.20
2022-08-08T23:24:06.386Z,15.10
2022-08-08T23:26:33.966Z,15.00
2022-08-08T23:29:01.350Z,15.00
2022-08-08T23:31:28.004Z,15.00
2022-08-08T23:34:17.865Z,15.00
2022-08-08T23:36:41.246Z,14.90
2022-08-08T23:39:09.483Z,14.90
2022-08-08T23:41:41.581Z,14.70
2022-08-08T23:44:13.195Z,14.60
2022-08-08T23:49:07.963Z,14.50
2022-08-08T23:49:26.460Z,14.50
2022-08-08T23:52:05.933Z,14.60
2022-08-08T23:54:43.246Z,14.60
2022-08-08T23:57:27.699Z,14.70
